sensor_id;sensor_type;location;lat;lon;timestamp;P1;durP1;ratioP1;P2;durP2;ratioP2
61356;SDS011;47227;46.752;23.576;2022-11-12T00:01:32;9.20;;;4.60;;
61356;SDS011;47227;46.752;23.576;2022-11-12T00:04:12;6.70;;;4.20;;
61356;SDS011;47227;46.752;23.576;2022-11-12T00:06:53;6.30;;;4.00;;
61356;SDS011;47227;46.752;23.576;2022-11-12T00:09:32;6.20;;;3.80;;
61356;SDS011;47227;46.752;23.576;2022-11-12T00:12:13;5.50;;;4.00;;
61356;SDS011;47227;46.752;23.576;2022-11-12T00:14:53;7.10;;;4.30;;
61356;SDS011;47227;46.752;23.576;2022-11-12T00:17:33;7.20;;;4.50;;
61356;SDS011;47227;46.752;23.576;2022-11-12T00:20:13;7.30;;;4.60;;
61356;SDS011;47227;46.752;23.576;2022-11-12T00:22:53;9.50;;;4.80;;
61356;SDS011;47227;46.752;23.576;2022-11-12T00:25:33;8.10;;;5.10;;
61356;SDS011;47227;46.752;23.576;2022-11-12T00:28:14;8.60;;;4.70;;
61356;SDS011;47227;46.752;23.576;2022-11-12T00:30:54;7.00;;;4.80;;
61356;SDS011;47227;46.752;23.576;2022-11-12T00:33:37;8.40;;;5.10;;
61356;SDS011;47227;46.752;23.576;2022-11-12T00:36:24;6.90;;;4.70;;
61356;SDS011;47227;46.752;23.576;2022-11-12T00:39:04;7.70;;;5.10;;
61356;SDS011;47227;46.752;23.576;2022-11-12T00:41:44;7.50;;;4.70;;
61356;SDS011;47227;46.752;23.576;2022-11-12T00:44:25;8.40;;;3.90;;
61356;SDS011;47227;46.752;23.576;2022-11-12T00:47:05;6.80;;;3.90;;
61356;SDS011;47227;46.752;23.576;2022-11-12T00:49:45;7.30;;;4.90;;
61356;SDS011;47227;46.752;23.576;2022-11-12T00:52:25;6.70;;;4.50;;
61356;SDS011;47227;46.752;23.576;2022-11-12T00:55:05;5.90;;;4.80;;
61356;SDS011;47227;46.752;23.576;2022-11-12T00:57:46;11.40;;;4.90;;
61356;SDS011;47227;46.752;23.576;2022-11-12T01:00:26;7.00;;;4.50;;
61356;SDS011;47227;46.752;23.576;2022-11-12T01:03:06;7.70;;;4.80;;
61356;SDS011;47227;46.752;23.576;2022-11-12T01:05:46;7.40;;;5.10;;
61356;SDS011;47227;46.752;23.576;2022-11-12T01:08:27;6.70;;;4.30;;
61356;SDS011;47227;46.752;23.576;2022-11-12T01:11:07;6.10;;;4.50;;
61356;SDS011;47227;46.752;23.576;2022-11-12T01:13:58;6.80;;;4.20;;
61356;SDS011;47227;46.752;23.576;2022-11-12T01:16:38;8.50;;;4.90;;
61356;SDS011;47227;46.752;23.576;2022-11-12T01:19:17;9.90;;;4.70;;
61356;SDS011;47227;46.752;23.576;2022-11-12T01:21:57;8.20;;;4.10;;
61356;SDS011;47227;46.752;23.576;2022-11-12T01:24:38;9.30;;;4.30;;
61356;SDS011;47227;46.752;23.576;2022-11-12T01:27:18;6.60;;;3.90;;
61356;SDS011;47227;46.752;23.576;2022-11-12T01:29:58;7.80;;;4.20;;
61356;SDS011;47227;46.752;23.576;2022-11-12T01:32:38;6.50;;;4.20;;
61356;SDS011;47227;46.752;23.576;2022-11-12T01:35:18;5.00;;;3.70;;
61356;SDS011;47227;46.752;23.576;2022-11-12T01:37:58;7.80;;;3.90;;
61356;SDS011;47227;46.752;23.576;2022-11-12T01:40:39;6.20;;;4.10;;
61356;SDS011;47227;46.752;23.576;2022-11-12T01:43:19;5.70;;;4.10;;
61356;SDS011;47227;46.752;23.576;2022-11-12T01:46:00;4.90;;;3.30;;
61356;SDS011;47227;46.752;23.576;2022-11-12T01:48:52;5.80;;;3.50;;
61356;SDS011;47227;46.752;23.576;2022-11-12T01:51:41;60.70;;;24.40;;
61356;SDS011;47227;46.752;23.576;2022-11-12T01:54:30;18.80;;;10.20;;
61356;SDS011;47227;46.752;23.576;2022-11-12T01:57:10;23.90;;;15.50;;
61356;SDS011;47227;46.752;23.576;2022-11-12T01:59:51;18.30;;;11.50;;
61356;SDS011;47227;46.752;23.576;2022-11-12T02:02:42;20.30;;;12.80;;
61356;SDS011;47227;46.752;23.576;2022-11-12T02:05:21;16.90;;;10.30;;
61356;SDS011;47227;46.752;23.576;2022-11-12T02:08:02;10.00;;;5.50;;
61356;SDS011;47227;46.752;23.576;2022-11-12T02:10:42;7.40;;;4.60;;
61356;SDS011;47227;46.752;23.576;2022-11-12T02:13:22;4.20;;;3.80;;
61356;SDS011;47227;46.752;23.576;2022-11-12T02:16:24;11.70;;;7.40;;
61356;SDS011;47227;46.752;23.576;2022-11-12T02:19:14;8.50;;;4.30;;
61356;SDS011;47227;46.752;23.576;2022-11-12T02:21:55;6.20;;;3.50;;
61356;SDS011;47227;46.752;23.576;2022-11-12T02:24:35;5.60;;;3.60;;
61356;SDS011;47227;46.752;23.576;2022-11-12T02:27:13;5.60;;;3.40;;
61356;SDS011;47227;46.752;23.576;2022-11-12T02:29:53;7.80;;;3.70;;
61356;SDS011;47227;46.752;23.576;2022-11-12T02:32:33;5.50;;;3.40;;
61356;SDS011;47227;46.752;23.576;2022-11-12T02:35:14;5.90;;;3.40;;
61356;SDS011;47227;46.752;23.576;2022-11-12T02:37:56;8.20;;;5.20;;
61356;SDS011;47227;46.752;23.576;2022-11-12T02:40:34;11.00;;;5.90;;
61356;SDS011;47227;46.752;23.576;2022-11-12T02:43:14;10.60;;;6.90;;
61356;SDS011;47227;46.752;23.576;2022-11-12T02:45:55;10.30;;;7.00;;
61356;SDS011;47227;46.752;23.576;2022-11-12T02:48:34;9.50;;;7.60;;
61356;SDS011;47227;46.752;23.576;2022-11-12T02:51:15;10.00;;;6.00;;
61356;SDS011;47227;46.752;23.576;2022-11-12T02:53:55;8.50;;;6.00;;
61356;SDS011;47227;46.752;23.576;2022-11-12T02:56:35;8.90;;;5.90;;
61356;SDS011;47227;46.752;23.576;2022-11-12T02:59:15;10.30;;;5.20;;
61356;SDS011;47227;46.752;23.576;2022-11-12T03:01:55;5.90;;;4.00;;
61356;SDS011;47227;46.752;23.576;2022-11-12T03:04:35;6.60;;;4.10;;
61356;SDS011;47227;46.752;23.576;2022-11-12T03:07:16;5.80;;;3.50;;
61356;SDS011;47227;46.752;23.576;2022-11-12T03:09:56;7.40;;;3.90;;
61356;SDS011;47227;46.752;23.576;2022-11-12T03:12:36;6.00;;;3.70;;
61356;SDS011;47227;46.752;23.576;2022-11-12T03:15:16;6.50;;;3.30;;
61356;SDS011;47227;46.752;23.576;2022-11-12T03:17:57;7.50;;;3.80;;
61356;SDS011;47227;46.752;23.576;2022-11-12T03:20:36;5.70;;;3.90;;
61356;SDS011;47227;46.752;23.576;2022-11-12T03:23:17;8.70;;;4.10;;
61356;SDS011;47227;46.752;23.576;2022-11-12T03:25:57;8.80;;;4.40;;
61356;SDS011;47227;46.752;23.576;2022-11-12T03:28:37;6.40;;;3.80;;
61356;SDS011;47227;46.752;23.576;2022-11-12T03:31:17;6.30;;;4.30;;
61356;SDS011;47227;46.752;23.576;2022-11-12T03:33:57;5.20;;;4.00;;
61356;SDS011;47227;46.752;23.576;2022-11-12T03:36:37;5.70;;;4.80;;
61356;SDS011;47227;46.752;23.576;2022-11-12T03:39:17;8.70;;;4.20;;
61356;SDS011;47227;46.752;23.576;2022-11-12T03:41:58;5.90;;;4.60;;
61356;SDS011;47227;46.752;23.576;2022-11-12T03:44:38;6.20;;;4.40;;
61356;SDS011;47227;46.752;23.576;2022-11-12T03:47:18;5.80;;;4.00;;
61356;SDS011;47227;46.752;23.576;2022-11-12T03:49:58;7.00;;;3.90;;
61356;SDS011;47227;46.752;23.576;2022-11-12T03:52:41;5.80;;;3.70;;
61356;SDS011;47227;46.752;23.576;2022-11-12T03:55:29;4.10;;;2.80;;
61356;SDS011;47227;46.752;23.576;2022-11-12T03:58:09;5.50;;;3.00;;
61356;SDS011;47227;46.752;23.576;2022-11-12T04:00:49;3.60;;;2.60;;
61356;SDS011;47227;46.752;23.576;2022-11-12T04:03:29;6.70;;;3.10;;
61356;SDS011;47227;46.752;23.576;2022-11-12T04:06:09;5.30;;;2.80;;
61356;SDS011;47227;46.752;23.576;2022-11-12T04:09:09;3.60;;;3.00;;
61356;SDS011;47227;46.752;23.576;2022-11-12T04:11:49;5.10;;;2.80;;
61356;SDS011;47227;46.752;23.576;2022-11-12T04:14:30;6.00;;;3.10;;
61356;SDS011;47227;46.752;23.576;2022-11-12T04:17:10;6.60;;;3.10;;
61356;SDS011;47227;46.752;23.576;2022-11-12T04:20:10;8.10;;;3.50;;
61356;SDS011;47227;46.752;23.576;2022-11-12T04:23:10;9.90;;;4.20;;
61356;SDS011;47227;46.752;23.576;2022-11-12T04:25:50;4.80;;;3.70;;
61356;SDS011;47227;46.752;23.576;2022-11-12T04:28:51;4.80;;;3.20;;
61356;SDS011;47227;46.752;23.576;2022-11-12T04:31:51;4.80;;;3.60;;
61356;SDS011;47227;46.752;23.576;2022-11-12T04:34:37;5.10;;;3.50;;
61356;SDS011;47227;46.752;23.576;2022-11-12T04:37:25;6.90;;;3.60;;
61356;SDS011;47227;46.752;23.576;2022-11-12T04:40:12;6.30;;;4.00;;
61356;SDS011;47227;46.752;23.576;2022-11-12T04:43:12;13.00;;;3.90;;
61356;SDS011;47227;46.752;23.576;2022-11-12T04:46:12;5.00;;;3.00;;
61356;SDS011;47227;46.752;23.576;2022-11-12T04:48:52;6.20;;;3.30;;
61356;SDS011;47227;46.752;23.576;2022-11-12T04:51:32;5.60;;;2.90;;
61356;SDS011;47227;46.752;23.576;2022-11-12T04:54:32;7.20;;;2.80;;
61356;SDS011;47227;46.752;23.576;2022-11-12T04:57:15;4.70;;;3.30;;
61356;SDS011;47227;46.752;23.576;2022-11-12T04:59:52;4.90;;;3.20;;
61356;SDS011;47227;46.752;23.576;2022-11-12T05:02:32;7.00;;;3.60;;
61356;SDS011;47227;46.752;23.576;2022-11-12T05:05:13;7.90;;;3.70;;
61356;SDS011;47227;46.752;23.576;2022-11-12T05:07:53;7.30;;;3.60;;
61356;SDS011;47227;46.752;23.576;2022-11-12T05:10:34;4.10;;;3.30;;
61356;SDS011;47227;46.752;23.576;2022-11-12T05:13:13;8.90;;;4.00;;
61356;SDS011;47227;46.752;23.576;2022-11-12T05:15:53;7.80;;;4.60;;
61356;SDS011;47227;46.752;23.576;2022-11-12T05:18:40;6.80;;;4.70;;
61356;SDS011;47227;46.752;23.576;2022-11-12T05:21:24;7.20;;;5.10;;
61356;SDS011;47227;46.752;23.576;2022-11-12T05:24:24;8.50;;;5.10;;
61356;SDS011;47227;46.752;23.576;2022-11-12T05:27:24;8.20;;;5.60;;
61356;SDS011;47227;46.752;23.576;2022-11-12T05:30:04;12.10;;;6.90;;
61356;SDS011;47227;46.752;23.576;2022-11-12T05:32:44;13.90;;;6.70;;
61356;SDS011;47227;46.752;23.576;2022-11-12T05:35:25;12.50;;;7.10;;
61356;SDS011;47227;46.752;23.576;2022-11-12T05:38:05;10.80;;;6.40;;
61356;SDS011;47227;46.752;23.576;2022-11-12T05:40:45;10.40;;;6.50;;
61356;SDS011;47227;46.752;23.576;2022-11-12T05:43:25;9.80;;;6.10;;
61356;SDS011;47227;46.752;23.576;2022-11-12T05:46:05;13.30;;;7.30;;
61356;SDS011;47227;46.752;23.576;2022-11-12T05:48:45;9.80;;;6.70;;
61356;SDS011;47227;46.752;23.576;2022-11-12T05:51:26;11.30;;;7.60;;
61356;SDS011;47227;46.752;23.576;2022-11-12T05:54:06;9.40;;;7.50;;
61356;SDS011;47227;46.752;23.576;2022-11-12T05:56:46;11.00;;;7.60;;
61356;SDS011;47227;46.752;23.576;2022-11-12T05:59:26;17.30;;;7.70;;
61356;SDS011;47227;46.752;23.576;2022-11-12T06:02:06;11.10;;;8.00;;
61356;SDS011;47227;46.752;23.576;2022-11-12T06:04:46;15.50;;;8.40;;
61356;SDS011;47227;46.752;23.576;2022-11-12T06:07:26;10.30;;;8.40;;
61356;SDS011;47227;46.752;23.576;2022-11-12T06:10:07;14.30;;;9.20;;
61356;SDS011;47227;46.752;23.576;2022-11-12T06:12:47;10.10;;;8.80;;
61356;SDS011;47227;46.752;23.576;2022-11-12T06:15:27;16.10;;;8.90;;
61356;SDS011;47227;46.752;23.576;2022-11-12T06:18:07;11.10;;;8.10;;
61356;SDS011;47227;46.752;23.576;2022-11-12T06:20:47;13.80;;;9.00;;
61356;SDS011;47227;46.752;23.576;2022-11-12T06:23:49;10.70;;;7.40;;
61356;SDS011;47227;46.752;23.576;2022-11-12T06:26:38;18.80;;;8.10;;
61356;SDS011;47227;46.752;23.576;2022-11-12T06:29:18;13.50;;;8.30;;
61356;SDS011;47227;46.752;23.576;2022-11-12T06:31:58;11.70;;;8.10;;
61356;SDS011;47227;46.752;23.576;2022-11-12T06:34:38;8.20;;;7.20;;
61356;SDS011;47227;46.752;23.576;2022-11-12T06:37:18;13.90;;;7.30;;
61356;SDS011;47227;46.752;23.576;2022-11-12T06:39:58;12.40;;;7.70;;
61356;SDS011;47227;46.752;23.576;2022-11-12T06:42:40;10.70;;;7.70;;
61356;SDS011;47227;46.752;23.576;2022-11-12T06:45:19;13.00;;;8.10;;
61356;SDS011;47227;46.752;23.576;2022-11-12T06:47:59;9.90;;;7.30;;
61356;SDS011;47227;46.752;23.576;2022-11-12T06:50:40;10.90;;;6.80;;
61356;SDS011;47227;46.752;23.576;2022-11-12T06:53:19;11.60;;;6.80;;
61356;SDS011;47227;46.752;23.576;2022-11-12T06:56:00;16.50;;;7.70;;
61356;SDS011;47227;46.752;23.576;2022-11-12T06:58:39;10.50;;;7.10;;
61356;SDS011;47227;46.752;23.576;2022-11-12T07:01:20;14.40;;;7.50;;
61356;SDS011;47227;46.752;23.576;2022-11-12T07:04:00;16.90;;;7.50;;
61356;SDS011;47227;46.752;23.576;2022-11-12T07:06:40;14.50;;;7.50;;
61356;SDS011;47227;46.752;23.576;2022-11-12T07:09:20;9.60;;;7.20;;
61356;SDS011;47227;46.752;23.576;2022-11-12T07:12:00;19.00;;;7.50;;
61356;SDS011;47227;46.752;23.576;2022-11-12T07:14:41;15.90;;;7.20;;
61356;SDS011;47227;46.752;23.576;2022-11-12T07:17:21;15.10;;;8.30;;
61356;SDS011;47227;46.752;23.576;2022-11-12T07:20:01;15.40;;;10.10;;
61356;SDS011;47227;46.752;23.576;2022-11-12T07:22:41;15.70;;;10.60;;
61356;SDS011;47227;46.752;23.576;2022-11-12T07:25:21;25.90;;;10.10;;
61356;SDS011;47227;46.752;23.576;2022-11-12T07:28:01;17.40;;;11.10;;
61356;SDS011;47227;46.752;23.576;2022-11-12T07:30:41;21.60;;;11.80;;
61356;SDS011;47227;46.752;23.576;2022-11-12T07:33:22;17.40;;;11.70;;
61356;SDS011;47227;46.752;23.576;2022-11-12T07:36:03;23.00;;;12.30;;
61356;SDS011;47227;46.752;23.576;2022-11-12T07:38:52;21.10;;;12.20;;
61356;SDS011;47227;46.752;23.576;2022-11-12T07:41:32;18.40;;;12.40;;
61356;SDS011;47227;46.752;23.576;2022-11-12T07:44:12;19.40;;;11.60;;
61356;SDS011;47227;46.752;23.576;2022-11-12T07:46:52;20.30;;;12.80;;
61356;SDS011;47227;46.752;23.576;2022-11-12T07:49:33;21.00;;;14.30;;
61356;SDS011;47227;46.752;23.576;2022-11-12T07:52:13;25.20;;;13.70;;
61356;SDS011;47227;46.752;23.576;2022-11-12T07:54:53;20.70;;;14.50;;
61356;SDS011;47227;46.752;23.576;2022-11-12T07:57:33;28.50;;;16.00;;
61356;SDS011;47227;46.752;23.576;2022-11-12T08:00:13;27.30;;;15.60;;
61356;SDS011;47227;46.752;23.576;2022-11-12T08:02:53;29.20;;;15.60;;
61356;SDS011;47227;46.752;23.576;2022-11-12T08:05:33;28.50;;;16.70;;
61356;SDS011;47227;46.752;23.576;2022-11-12T08:08:14;26.60;;;17.10;;
61356;SDS011;47227;46.752;23.576;2022-11-12T08:10:55;27.50;;;17.00;;
61356;SDS011;47227;46.752;23.576;2022-11-12T08:13:34;29.20;;;19.00;;
61356;SDS011;47227;46.752;23.576;2022-11-12T08:16:14;32.40;;;18.60;;
61356;SDS011;47227;46.752;23.576;2022-11-12T08:18:54;36.10;;;18.90;;
61356;SDS011;47227;46.752;23.576;2022-11-12T08:21:34;34.10;;;17.80;;
61356;SDS011;47227;46.752;23.576;2022-11-12T08:24:15;33.40;;;19.20;;
61356;SDS011;47227;46.752;23.576;2022-11-12T08:26:55;32.30;;;17.60;;
61356;SDS011;47227;46.752;23.576;2022-11-12T08:29:35;28.20;;;16.80;;
61356;SDS011;47227;46.752;23.576;2022-11-12T08:32:15;42.50;;;19.10;;
61356;SDS011;47227;46.752;23.576;2022-11-12T08:34:58;33.60;;;17.60;;
61356;SDS011;47227;46.752;23.576;2022-11-12T08:37:36;34.70;;;17.90;;
61356;SDS011;47227;46.752;23.576;2022-11-12T08:40:22;36.10;;;18.00;;
61356;SDS011;47227;46.752;23.576;2022-11-12T08:43:06;30.00;;;17.90;;
61356;SDS011;47227;46.752;23.576;2022-11-12T08:45:46;29.40;;;17.40;;
61356;SDS011;47227;46.752;23.576;2022-11-12T08:48:27;32.60;;;18.60;;
61356;SDS011;47227;46.752;23.576;2022-11-12T08:51:07;34.10;;;19.20;;
61356;SDS011;47227;46.752;23.576;2022-11-12T08:53:47;33.40;;;19.80;;
61356;SDS011;47227;46.752;23.576;2022-11-12T08:56:27;40.70;;;20.50;;
61356;SDS011;47227;46.752;23.576;2022-11-12T08:59:07;42.80;;;20.10;;
61356;SDS011;47227;46.752;23.576;2022-11-12T09:01:47;38.80;;;19.30;;
61356;SDS011;47227;46.752;23.576;2022-11-12T09:04:27;39.20;;;21.00;;
61356;SDS011;47227;46.752;23.576;2022-11-12T09:07:07;41.00;;;21.10;;
61356;SDS011;47227;46.752;23.576;2022-11-12T09:09:47;29.90;;;20.30;;
61356;SDS011;47227;46.752;23.576;2022-11-12T09:12:28;30.90;;;19.40;;
61356;SDS011;47227;46.752;23.576;2022-11-12T09:15:08;37.40;;;20.10;;
61356;SDS011;47227;46.752;23.576;2022-11-12T09:18:10;34.20;;;19.90;;
61356;SDS011;47227;46.752;23.576;2022-11-12T09:21:00;37.00;;;21.10;;
61356;SDS011;47227;46.752;23.576;2022-11-12T09:23:39;39.00;;;25.30;;
61356;SDS011;47227;46.752;23.576;2022-11-12T09:26:18;46.90;;;27.20;;
61356;SDS011;47227;46.752;23.576;2022-11-12T09:28:59;38.10;;;23.60;;
61356;SDS011;47227;46.752;23.576;2022-11-12T09:31:39;34.70;;;22.20;;
61356;SDS011;47227;46.752;23.576;2022-11-12T09:34:19;35.20;;;21.50;;
61356;SDS011;47227;46.752;23.576;2022-11-12T09:36:59;30.10;;;18.70;;
61356;SDS011;47227;46.752;23.576;2022-11-12T09:39:39;30.60;;;18.80;;
61356;SDS011;47227;46.752;23.576;2022-11-12T09:42:20;27.60;;;18.50;;
61356;SDS011;47227;46.752;23.576;2022-11-12T09:48:01;31.10;;;18.10;;
61356;SDS011;47227;46.752;23.576;2022-11-12T09:53:54;26.80;;;18.30;;
61356;SDS011;47227;46.752;23.576;2022-11-12T09:56:41;35.30;;;22.80;;
61356;SDS011;47227;46.752;23.576;2022-11-12T09:59:21;34.20;;;22.80;;
61356;SDS011;47227;46.752;23.576;2022-11-12T10:02:05;36.70;;;24.20;;
61356;SDS011;47227;46.752;23.576;2022-11-12T10:08:05;29.70;;;19.10;;
61356;SDS011;47227;46.752;23.576;2022-11-12T10:11:08;29.50;;;19.90;;
61356;SDS011;47227;46.752;23.576;2022-11-12T10:17:17;25.90;;;17.60;;
61356;SDS011;47227;46.752;23.576;2022-11-12T10:23:25;26.60;;;17.50;;
61356;SDS011;47227;46.752;23.576;2022-11-12T10:26:13;32.80;;;20.00;;
61356;SDS011;47227;46.752;23.576;2022-11-12T10:32:03;27.30;;;19.00;;
61356;SDS011;47227;46.752;23.576;2022-11-12T10:34:43;31.30;;;20.50;;
61356;SDS011;47227;46.752;23.576;2022-11-12T10:37:24;30.90;;;20.80;;
61356;SDS011;47227;46.752;23.576;2022-11-12T10:40:25;31.80;;;20.90;;
61356;SDS011;47227;46.752;23.576;2022-11-12T10:43:19;32.90;;;20.00;;
61356;SDS011;47227;46.752;23.576;2022-11-12T10:49:05;26.00;;;17.50;;
61356;SDS011;47227;46.752;23.576;2022-11-12T10:52:16;23.10;;;16.40;;
61356;SDS011;47227;46.752;23.576;2022-11-12T10:58:10;25.30;;;16.50;;
61356;SDS011;47227;46.752;23.576;2022-11-12T11:00:57;22.80;;;15.80;;
61356;SDS011;47227;46.752;23.576;2022-11-12T11:03:46;22.20;;;15.80;;
61356;SDS011;47227;46.752;23.576;2022-11-12T11:06:35;26.80;;;15.40;;
61356;SDS011;47227;46.752;23.576;2022-11-12T11:09:15;19.90;;;15.10;;
61356;SDS011;47227;46.752;23.576;2022-11-12T11:11:55;22.30;;;15.80;;
61356;SDS011;47227;46.752;23.576;2022-11-12T11:14:35;24.30;;;15.00;;
61356;SDS011;47227;46.752;23.576;2022-11-12T11:17:16;19.50;;;14.30;;
61356;SDS011;47227;46.752;23.576;2022-11-12T11:19:56;21.20;;;15.60;;
61356;SDS011;47227;46.752;23.576;2022-11-12T11:22:38;21.20;;;15.50;;
61356;SDS011;47227;46.752;23.576;2022-11-12T11:25:26;24.00;;;15.70;;
61356;SDS011;47227;46.752;23.576;2022-11-12T11:28:11;26.50;;;15.60;;
61356;SDS011;47227;46.752;23.576;2022-11-12T11:31:22;24.30;;;18.20;;
61356;SDS011;47227;46.752;23.576;2022-11-12T11:37:29;35.40;;;18.80;;
61356;SDS011;47227;46.752;23.576;2022-11-12T11:40:23;22.90;;;18.20;;
61356;SDS011;47227;46.752;23.576;2022-11-12T11:43:12;28.60;;;16.40;;
61356;SDS011;47227;46.752;23.576;2022-11-12T11:46:16;19.50;;;15.80;;
61356;SDS011;47227;46.752;23.576;2022-11-12T11:52:33;23.30;;;17.50;;
61356;SDS011;47227;46.752;23.576;2022-11-12T11:55:31;23.70;;;16.70;;
61356;SDS011;47227;46.752;23.576;2022-11-12T11:58:29;20.50;;;15.80;;
61356;SDS011;47227;46.752;23.576;2022-11-12T12:01:40;25.70;;;16.70;;
61356;SDS011;47227;46.752;23.576;2022-11-12T12:04:49;22.10;;;16.30;;
61356;SDS011;47227;46.752;23.576;2022-11-12T12:07:50;21.60;;;17.00;;
61356;SDS011;47227;46.752;23.576;2022-11-12T12:10:42;25.70;;;17.50;;
61356;SDS011;47227;46.752;23.576;2022-11-12T12:13:54;24.30;;;17.80;;
61356;SDS011;47227;46.752;23.576;2022-11-12T12:17:03;24.20;;;17.40;;
61356;SDS011;47227;46.752;23.576;2022-11-12T12:20:02;23.80;;;17.50;;
61356;SDS011;47227;46.752;23.576;2022-11-12T12:23:01;25.70;;;17.60;;
61356;SDS011;47227;46.752;23.576;2022-11-12T12:25:49;26.70;;;17.50;;
61356;SDS011;47227;46.752;23.576;2022-11-12T12:28:44;25.40;;;18.30;;
61356;SDS011;47227;46.752;23.576;2022-11-12T12:34:53;28.40;;;19.60;;
61356;SDS011;47227;46.752;23.576;2022-11-12T12:37:45;24.40;;;18.60;;
61356;SDS011;47227;46.752;23.576;2022-11-12T12:40:32;23.50;;;17.20;;
61356;SDS011;47227;46.752;23.576;2022-11-12T12:43:22;25.10;;;17.70;;
61356;SDS011;47227;46.752;23.576;2022-11-12T12:46:11;24.20;;;17.60;;
61356;SDS011;47227;46.752;23.576;2022-11-12T12:48:51;24.80;;;19.60;;
61356;SDS011;47227;46.752;23.576;2022-11-12T12:51:31;29.70;;;19.70;;
61356;SDS011;47227;46.752;23.576;2022-11-12T12:57:32;31.60;;;19.60;;
61356;SDS011;47227;46.752;23.576;2022-11-12T13:06:33;25.90;;;16.60;;
61356;SDS011;47227;46.752;23.576;2022-11-12T13:09:23;20.90;;;16.20;;
61356;SDS011;47227;46.752;23.576;2022-11-12T13:12:03;20.20;;;16.30;;
61356;SDS011;47227;46.752;23.576;2022-11-12T13:15:11;21.40;;;17.10;;
61356;SDS011;47227;46.752;23.576;2022-11-12T13:17:53;24.40;;;17.00;;
61356;SDS011;47227;46.752;23.576;2022-11-12T13:20:35;23.70;;;16.70;;
61356;SDS011;47227;46.752;23.576;2022-11-12T13:23:42;22.30;;;16.60;;
61356;SDS011;47227;46.752;23.576;2022-11-12T13:26:55;21.60;;;15.50;;
61356;SDS011;47227;46.752;23.576;2022-11-12T13:29:44;21.50;;;16.50;;
61356;SDS011;47227;46.752;23.576;2022-11-12T13:35:25;21.90;;;15.70;;
61356;SDS011;47227;46.752;23.576;2022-11-12T13:38:14;23.70;;;16.90;;
61356;SDS011;47227;46.752;23.576;2022-11-12T13:40:56;22.30;;;16.50;;
61356;SDS011;47227;46.752;23.576;2022-11-12T13:43:45;24.70;;;16.60;;
61356;SDS011;47227;46.752;23.576;2022-11-12T13:46:26;22.90;;;17.00;;
61356;SDS011;47227;46.752;23.576;2022-11-12T13:49:15;23.90;;;16.10;;
61356;SDS011;47227;46.752;23.576;2022-11-12T13:51:55;18.70;;;15.10;;
61356;SDS011;47227;46.752;23.576;2022-11-12T13:54:35;20.60;;;15.90;;
61356;SDS011;47227;46.752;23.576;2022-11-12T13:57:24;21.20;;;15.90;;
61356;SDS011;47227;46.752;23.576;2022-11-12T14:03:06;21.60;;;16.30;;
61356;SDS011;47227;46.752;23.576;2022-11-12T14:05:46;25.60;;;16.40;;
61356;SDS011;47227;46.752;23.576;2022-11-12T14:08:29;24.00;;;16.30;;
61356;SDS011;47227;46.752;23.576;2022-11-12T14:11:37;26.70;;;16.70;;
61356;SDS011;47227;46.752;23.576;2022-11-12T14:14:36;32.70;;;17.60;;
61356;SDS011;47227;46.752;23.576;2022-11-12T14:17:41;30.80;;;17.30;;
61356;SDS011;47227;46.752;23.576;2022-11-12T14:20:38;26.30;;;18.10;;
61356;SDS011;47227;46.752;23.576;2022-11-12T14:23:18;26.60;;;17.50;;
61356;SDS011;47227;46.752;23.576;2022-11-12T14:26:08;26.70;;;17.90;;
61356;SDS011;47227;46.752;23.576;2022-11-12T14:28:54;32.40;;;19.00;;
61356;SDS011;47227;46.752;23.576;2022-11-12T14:31:37;44.30;;;32.00;;
61356;SDS011;47227;46.752;23.576;2022-11-12T14:37:30;30.90;;;18.70;;
61356;SDS011;47227;46.752;23.576;2022-11-12T14:40:29;37.50;;;18.70;;
61356;SDS011;47227;46.752;23.576;2022-11-12T14:46:18;32.80;;;18.00;;
61356;SDS011;47227;46.752;23.576;2022-11-12T14:49:17;31.30;;;18.30;;
61356;SDS011;47227;46.752;23.576;2022-11-12T14:52:18;31.20;;;18.80;;
61356;SDS011;47227;46.752;23.576;2022-11-12T14:55:03;34.00;;;19.80;;
61356;SDS011;47227;46.752;23.576;2022-11-12T14:57:49;30.10;;;18.60;;
61356;SDS011;47227;46.752;23.576;2022-11-12T15:00:35;30.50;;;19.10;;
61356;SDS011;47227;46.752;23.576;2022-11-12T15:03:20;34.40;;;20.10;;
61356;SDS011;47227;46.752;23.576;2022-11-12T15:06:07;38.40;;;20.50;;
61356;SDS011;47227;46.752;23.576;2022-11-12T15:08:57;34.60;;;20.30;;
61356;SDS011;47227;46.752;23.576;2022-11-12T15:11:42;33.80;;;21.10;;
61356;SDS011;47227;46.752;23.576;2022-11-12T15:14:30;39.10;;;21.60;;
61356;SDS011;47227;46.752;23.576;2022-11-12T15:17:20;42.80;;;22.20;;
61356;SDS011;47227;46.752;23.576;2022-11-12T15:20:12;38.70;;;23.40;;
61356;SDS011;47227;46.752;23.576;2022-11-12T15:23:01;42.20;;;22.50;;
61356;SDS011;47227;46.752;23.576;2022-11-12T15:25:41;42.70;;;24.50;;
61356;SDS011;47227;46.752;23.576;2022-11-12T15:28:22;40.10;;;23.20;;
61356;SDS011;47227;46.752;23.576;2022-11-12T15:31:06;41.30;;;24.20;;
61356;SDS011;47227;46.752;23.576;2022-11-12T15:33:52;52.40;;;28.00;;
61356;SDS011;47227;46.752;23.576;2022-11-12T15:36:32;52.80;;;28.80;;
61356;SDS011;47227;46.752;23.576;2022-11-12T15:39:12;54.60;;;30.00;;
61356;SDS011;47227;46.752;23.576;2022-11-12T15:42:01;46.50;;;26.10;;
61356;SDS011;47227;46.752;23.576;2022-11-12T15:44:43;51.00;;;28.20;;
61356;SDS011;47227;46.752;23.576;2022-11-12T15:47:23;49.40;;;28.80;;
61356;SDS011;47227;46.752;23.576;2022-11-12T15:53:04;56.80;;;31.20;;
61356;SDS011;47227;46.752;23.576;2022-11-12T15:55:44;56.40;;;28.50;;
61356;SDS011;47227;46.752;23.576;2022-11-12T15:58:29;51.20;;;26.60;;
61356;SDS011;47227;46.752;23.576;2022-11-12T16:01:15;46.70;;;24.30;;
61356;SDS011;47227;46.752;23.576;2022-11-12T16:04:01;46.80;;;25.10;;
61356;SDS011;47227;46.752;23.576;2022-11-12T16:06:45;41.50;;;24.90;;
61356;SDS011;47227;46.752;23.576;2022-11-12T16:09:32;46.90;;;25.90;;
61356;SDS011;47227;46.752;23.576;2022-11-12T16:12:16;49.40;;;26.40;;
61356;SDS011;47227;46.752;23.576;2022-11-12T16:14:58;44.60;;;24.30;;
61356;SDS011;47227;46.752;23.576;2022-11-12T16:17:36;42.60;;;24.40;;
61356;SDS011;47227;46.752;23.576;2022-11-12T16:20:18;46.30;;;25.30;;
61356;SDS011;47227;46.752;23.576;2022-11-12T16:23:08;52.30;;;24.90;;
61356;SDS011;47227;46.752;23.576;2022-11-12T16:25:47;44.80;;;25.10;;
61356;SDS011;47227;46.752;23.576;2022-11-12T16:28:27;46.20;;;24.90;;
61356;SDS011;47227;46.752;23.576;2022-11-12T16:31:07;42.30;;;24.20;;
61356;SDS011;47227;46.752;23.576;2022-11-12T16:33:48;51.30;;;24.40;;
61356;SDS011;47227;46.752;23.576;2022-11-12T16:36:34;49.30;;;27.40;;
61356;SDS011;47227;46.752;23.576;2022-11-12T16:39:21;45.40;;;25.80;;
61356;SDS011;47227;46.752;23.576;2022-11-12T16:41:58;50.20;;;26.80;;
61356;SDS011;47227;46.752;23.576;2022-11-12T16:44:38;52.40;;;27.50;;
61356;SDS011;47227;46.752;23.576;2022-11-12T16:47:18;55.20;;;29.00;;
61356;SDS011;47227;46.752;23.576;2022-11-12T16:49:58;48.80;;;28.90;;
61356;SDS011;47227;46.752;23.576;2022-11-12T16:52:45;46.10;;;27.20;;
61356;SDS011;47227;46.752;23.576;2022-11-12T16:55:31;49.50;;;27.10;;
61356;SDS011;47227;46.752;23.576;2022-11-12T16:58:16;46.70;;;28.00;;